sensor_id;sensor_type;location;lat;lon;timestamp;pressure;altitude;pressure_sealevel;temperature;humidity
55113;BME280;41006;50.920;3.456;2023-06-19T00:00:06;100683.75;;;18.86;100.00
55113;BME280;41006;50.920;3.456;2023-06-19T00:00:45;100687.97;;;18.92;100.00
55113;BME280;41006;50.920;3.456;2023-06-19T00:01:18;100684.50;;;18.90;100.00
55113;BME280;41006;50.920;3.456;2023-06-19T00:01:48;100690.19;;;18.84;100.00
55113;BME280;41006;50.920;3.456;2023-06-19T00:02:19;100698.28;;;18.82;100.00
55113;BME280;41006;50.920;3.456;2023-06-19T00:02:51;100688.53;;;18.80;100.00
55113;BME280;41006;50.920;3.456;2023-06-19T00:03:27;100684.28;;;18.76;100.00
55113;BME280;41006;50.920;3.456;2023-06-19T00:03:59;100682.13;;;18.84;100.00
55113;BME280;41006;50.920;3.456;2023-06-19T00:04:30;100688.84;;;18.93;100.00
55113;BME280;41006;50.920;3.456;2023-06-19T00:05:03;100683.38;;;18.94;100.00
55113;BME280;41006;50.920;3.456;2023-06-19T00:05:36;100694.75;;;18.99;100.00
55113;BME280;41006;50.920;3.456;2023-06-19T00:06:06;100692.63;;;18.89;100.00
55113;BME280;41006;50.920;3.456;2023-06-19T00:06:37;100688.47;;;18.81;100.00
55113;BME280;41006;50.920;3.456;2023-06-19T00:07:09;100686.97;;;18.76;100.00
55113;BME280;41006;50.920;3.456;2023-06-19T00:07:40;100683.91;;;18.83;100.00
55113;BME280;41006;50.920;3.456;2023-06-19T00:08:12;100690.19;;;18.84;100.00
55113;BME280;41006;50.920;3.456;2023-06-19T00:08:45;100682.81;;;18.88;100.00
55113;BME280;41006;50.920;3.456;2023-06-19T00:09:23;100685.50;;;18.88;100.00
55113;BME280;41006;50.920;3.456;2023-06-19T00:09:53;100688.34;;;18.84;100.00
55113;BME280;41006;50.920;3.456;2023-06-19T00:10:29;100695.56;;;18.84;100.00
55113;BME280;41006;50.920;3.456;2023-06-19T00:10:59;100691.16;;;18.81;100.00
55113;BME280;41006;50.920;3.456;2023-06-19T00:11:30;100689.28;;;18.83;100.00
55113;BME280;41006;50.920;3.456;2023-06-19T00:12:02;100692.13;;;18.80;100.00
55113;BME280;41006;50.920;3.456;2023-06-19T00:12:36;100691.91;;;18.85;100.00
55113;BME280;41006;50.920;3.456;2023-06-19T00:13:06;100689.06;;;18.88;100.00
55113;BME280;41006;50.920;3.456;2023-06-19T00:13:39;100693.13;;;18.97;100.00
55113;BME280;41006;50.920;3.456;2023-06-19T00:14:09;100689.69;;;18.93;100.00
55113;BME280;41006;50.920;3.456;2023-06-19T00:14:40;100695.41;;;18.87;100.00
55113;BME280;41006;50.920;3.456;2023-06-19T00:15:10;100690.59;;;18.94;100.00
55113;BME280;41006;50.920;3.456;2023-06-19T00:15:41;100694.63;;;19.02;100.00
55113;BME280;41006;50.920;3.456;2023-06-19T00:16:14;100697.44;;;18.99;100.00
55113;BME280;41006;50.920;3.456;2023-06-19T00:16:47;100696.38;;;19.03;100.00
55113;BME280;41006;50.920;3.456;2023-06-19T00:17:17;100697.44;;;18.99;100.00
55113;BME280;41006;50.920;3.456;2023-06-19T00:17:47;100695.97;;;18.94;100.00
55113;BME280;41006;50.920;3.456;2023-06-19T00:18:20;100693.00;;;18.98;100.00
55113;BME280;41006;50.920;3.456;2023-06-19T00:18:53;100698.25;;;19.01;100.00
55113;BME280;41006;50.920;3.456;2023-06-19T00:19:28;100692.84;;;19.01;100.00
55113;BME280;41006;50.920;3.456;2023-06-19T00:19:58;100697.22;;;19.04;100.00
55113;BME280;41006;50.920;3.456;2023-06-19T00:20:31;100697.16;;;19.06;100.00
55113;BME280;41006;50.920;3.456;2023-06-19T00:21:04;100696.44;;;19.02;100.00
55113;BME280;41006;50.920;3.456;2023-06-19T00:21:35;100694.47;;;19.06;100.00
55113;BME280;41006;50.920;3.456;2023-06-19T00:22:09;100695.47;;;19.03;100.00
55113;BME280;41006;50.920;3.456;2023-06-19T00:22:40;100700.28;;;18.96;100.00
55113;BME280;41006;50.920;3.456;2023-06-19T00:23:13;100696.50;;;19.00;100.00
55113;BME280;41006;50.920;3.456;2023-06-19T00:23:46;100701.00;;;19.00;100.00
55113;BME280;41006;50.920;3.456;2023-06-19T00:24:19;100701.56;;;19.07;100.00
55113;BME280;41006;50.920;3.456;2023-06-19T00:24:52;100707.28;;;19.00;100.00
55113;BME280;41006;50.920;3.456;2023-06-19T00:25:27;100701.63;;;19.05;100.00
55113;BME280;41006;50.920;3.456;2023-06-19T00:25:57;100699.75;;;19.07;100.00
55113;BME280;41006;50.920;3.456;2023-06-19T00:26:31;100714.06;;;19.08;100.00
55113;BME280;41006;50.920;3.456;2023-06-19T00:27:02;100708.63;;;19.09;100.00
55113;BME280;41006;50.920;3.456;2023-06-19T00:27:32;100711.31;;;19.09;100.00
55113;BME280;41006;50.920;3.456;2023-06-19T00:28:05;100715.63;;;19.12;100.00
55113;BME280;41006;50.920;3.456;2023-06-19T00:28:41;100712.88;;;19.13;100.00
55113;BME280;41006;50.920;3.456;2023-06-19T00:29:16;100708.47;;;19.12;100.00
55113;BME280;41006;50.920;3.456;2023-06-19T00:29:48;100712.16;;;19.10;100.00
55113;BME280;41006;50.920;3.456;2023-06-19T00:30:19;100714.69;;;19.13;100.00
55113;BME280;41006;50.920;3.456;2023-06-19T00:30:54;100711.00;;;19.15;100.00
55113;BME280;41006;50.920;3.456;2023-06-19T00:31:32;100720.56;;;19.21;100.00
55113;BME280;41006;50.920;3.456;2023-06-19T00:32:02;100717.25;;;19.16;100.00
55113;BME280;41006;50.920;3.456;2023-06-19T00:32:37;100714.47;;;19.17;100.00
55113;BME280;41006;50.920;3.456;2023-06-19T00:33:16;100711.69;;;19.19;100.00
55113;BME280;41006;50.920;3.456;2023-06-19T00:33:46;100722.31;;;19.22;100.00
55113;BME280;41006;50.920;3.456;2023-06-19T00:34:20;100721.75;;;19.33;100.00
55113;BME280;41006;50.920;3.456;2023-06-19T00:34:56;100718.19;;;19.32;100.00
55113;BME280;41006;50.920;3.456;2023-06-19T00:35:29;100716.59;;;19.28;100.00
55113;BME280;41006;50.920;3.456;2023-06-19T00:36:01;100717.22;;;19.33;100.00
55113;BME280;41006;50.920;3.456;2023-06-19T00:36:32;100722.28;;;19.39;100.00
55113;BME280;41006;50.920;3.456;2023-06-19T00:37:03;100717.97;;;19.37;100.00
55113;BME280;41006;50.920;3.456;2023-06-19T00:37:41;100722.59;;;19.33;100.00
55113;BME280;41006;50.920;3.456;2023-06-19T00:38:17;100717.47;;;19.29;100.00
55113;BME280;41006;50.920;3.456;2023-06-19T00:38:47;100719.19;;;19.30;100.00
55113;BME280;41006;50.920;3.456;2023-06-19T00:39:23;100725.47;;;19.30;100.00
55113;BME280;41006;50.920;3.456;2023-06-19T00:39:57;100723.25;;;19.21;100.00
55113;BME280;41006;50.920;3.456;2023-06-19T00:40:32;100714.06;;;19.25;100.00
55113;BME280;41006;50.920;3.456;2023-06-19T00:41:03;100722.94;;;19.27;100.00
55113;BME280;41006;50.920;3.456;2023-06-19T00:41:37;100712.50;;;19.21;100.00
55113;BME280;41006;50.920;3.456;2023-06-19T00:42:10;100716.38;;;19.15;100.00
55113;BME280;41006;50.920;3.456;2023-06-19T00:42:44;100713.75;;;19.14;100.00
55113;BME280;41006;50.920;3.456;2023-06-19T00:43:14;100711.16;;;19.12;100.00
55113;BME280;41006;50.920;3.456;2023-06-19T00:43:44;100711.16;;;19.12;100.00
55113;BME280;41006;50.920;3.456;2023-06-19T00:44:15;100710.81;;;19.18;100.00
55113;BME280;41006;50.920;3.456;2023-06-19T00:44:50;100709.72;;;19.22;100.00
55113;BME280;41006;50.920;3.456;2023-06-19T00:45:23;100718.72;;;19.21;100.00
55113;BME280;41006;50.920;3.456;2023-06-19T00:45:59;100719.00;;;19.17;100.00
55113;BME280;41006;50.920;3.456;2023-06-19T00:46:36;100716.44;;;19.14;100.00
55113;BME280;41006;50.920;3.456;2023-06-19T00:47:07;100721.91;;;19.12;100.00
55113;BME280;41006;50.920;3.456;2023-06-19T00:47:40;100717.47;;;19.11;100.00
55113;BME280;41006;50.920;3.456;2023-06-19T00:48:13;100718.25;;;19.13;100.00
55113;BME280;41006;50.920;3.456;2023-06-19T00:48:47;100721.56;;;19.18;100.00
55113;BME280;41006;50.920;3.456;2023-06-19T00:49:21;100726.25;;;19.15;100.00
55113;BME280;41006;50.920;3.456;2023-06-19T00:49:57;100720.06;;;19.13;100.00
55113;BME280;41006;50.920;3.456;2023-06-19T00:50:28;100722.91;;;19.10;100.00
55113;BME280;41006;50.920;3.456;2023-06-19T00:51:00;100724.75;;;19.09;100.00
55113;BME280;41006;50.920;3.456;2023-06-19T00:51:35;100722.91;;;19.10;100.00
55113;BME280;41006;50.920;3.456;2023-06-19T00:52:10;100723.56;;;19.15;100.00
55113;BME280;41006;50.920;3.456;2023-06-19T00:52:43;100722.63;;;19.16;100.00
55113;BME280;41006;50.920;3.456;2023-06-19T00:53:14;100722.47;;;19.19;100.00
55113;BME280;41006;50.920;3.456;2023-06-19T00:53:46;100725.94;;;19.21;100.00
55113;BME280;41006;50.920;3.456;2023-06-19T00:54:17;100717.25;;;19.16;100.00
55113;BME280;41006;50.920;3.456;2023-06-19T00:54:50;100721.97;;;19.11;100.00
55113;BME280;41006;50.920;3.456;2023-06-19T00:55:23;100723.06;;;19.07;100.00
55113;BME280;41006;50.920;3.456;2023-06-19T00:55:56;100730.34;;;19.04;100.00
55113;BME280;41006;50.920;3.456;2023-06-19T00:56:26;100721.50;;;19.02;100.00
55113;BME280;41006;50.920;3.456;2023-06-19T00:56:59;100712.31;;;19.07;100.00
55113;BME280;41006;50.920;3.456;2023-06-19T00:57:33;100726.66;;;19.07;100.00
55113;BME280;41006;50.920;3.456;2023-06-19T00:58:09;100715.75;;;19.10;100.00
55113;BME280;41006;50.920;3.456;2023-06-19T00:58:41;100724.19;;;19.20;100.00
55113;BME280;41006;50.920;3.456;2023-06-19T00:59:20;100721.09;;;19.28;100.00
55113;BME280;41006;50.920;3.456;2023-06-19T00:59:53;100719.84;;;19.17;100.00
55113;BME280;41006;50.920;3.456;2023-06-19T01:00:29;100723.56;;;19.15;100.00
55113;BME280;41006;50.920;3.456;2023-06-19T01:01:01;100728.06;;;19.14;100.00
55113;BME280;41006;50.920;3.456;2023-06-19T01:01:32;100716.75;;;19.08;100.00
55113;BME280;41006;50.920;3.456;2023-06-19T01:02:03;100723.97;;;19.07;100.00
55113;BME280;41006;50.920;3.456;2023-06-19T01:02:34;100723.16;;;19.05;100.00
55113;BME280;41006;50.920;3.456;2023-06-19T01:03:09;100724.97;;;19.04;100.00
55113;BME280;41006;50.920;3.456;2023-06-19T01:03:43;100724.53;;;19.14;100.00
55113;BME280;41006;50.920;3.456;2023-06-19T01:04:16;100732.81;;;19.09;100.00
55113;BME280;41006;50.920;3.456;2023-06-19T01:04:46;100718.59;;;19.07;100.00
55113;BME280;41006;50.920;3.456;2023-06-19T01:05:19;100725.94;;;19.03;100.00
55113;BME280;41006;50.920;3.456;2023-06-19T01:05:51;100724.25;;;19.01;100.00
55113;BME280;41006;50.920;3.456;2023-06-19T01:06:24;100729.56;;;19.02;100.00
55113;BME280;41006;50.920;3.456;2023-06-19T01:07:13;100732.25;;;19.02;100.00
55113;BME280;41006;50.920;3.456;2023-06-19T01:08:41;100727.31;;;18.93;100.00
55113;BME280;41006;50.920;3.456;2023-06-19T01:09:16;100739.38;;;19.03;100.00
55113;BME280;41006;50.920;3.456;2023-06-19T01:09:57;100739.22;;;19.07;100.00
55113;BME280;41006;50.920;3.456;2023-06-19T01:10:42;100743.78;;;19.04;100.00
55113;BME280;41006;50.920;3.456;2023-06-19T01:11:21;100727.19;;;18.96;100.00
55113;BME280;41006;50.920;3.456;2023-06-19T01:12:02;100739.06;;;18.92;100.00
55113;BME280;41006;50.920;3.456;2023-06-19T01:12:37;100729.69;;;18.82;100.00
55113;BME280;41006;50.920;3.456;2023-06-19T01:13:50;100732.59;;;18.77;100.00
55113;BME280;41006;50.920;3.456;2023-06-19T01:14:37;100742.03;;;18.86;100.00
55113;BME280;41006;50.920;3.456;2023-06-19T01:15:09;100743.78;;;18.87;100.00
55113;BME280;41006;50.920;3.456;2023-06-19T01:15:45;100748.28;;;18.86;100.00
55113;BME280;41006;50.920;3.456;2023-06-19T01:16:18;100741.09;;;18.87;100.00
55113;BME280;41006;50.920;3.456;2023-06-19T01:16:48;100750.25;;;18.83;100.00
55113;BME280;41006;50.920;3.456;2023-06-19T01:17:21;100753.03;;;18.80;100.00
55113;BME280;41006;50.920;3.456;2023-06-19T01:17:56;100759.75;;;18.71;100.00
55113;BME280;41006;50.920;3.456;2023-06-19T01:18:30;100752.56;;;18.72;100.00
55113;BME280;41006;50.920;3.456;2023-06-19T01:19:05;100758.56;;;18.77;100.00
55113;BME280;41006;50.920;3.456;2023-06-19T01:19:40;100753.78;;;18.83;100.00
55113;BME280;41006;50.920;3.456;2023-06-19T01:20:11;100760.41;;;18.76;100.00
55113;BME280;41006;50.920;3.456;2023-06-19T01:20:42;100759.81;;;18.70;100.00
55113;BME280;41006;50.920;3.456;2023-06-19T01:21:16;100759.75;;;18.71;100.00
55113;BME280;41006;50.920;3.456;2023-06-19T01:21:47;100760.94;;;18.65;100.00
55113;BME280;41006;50.920;3.456;2023-06-19T01:22:25;100765.50;;;18.63;100.00
55113;BME280;41006;50.920;3.456;2023-06-19T01:23:04;100768.78;;;18.51;100.00
55113;BME280;41006;50.920;3.456;2023-06-19T01:23:35;100758.03;;;18.51;100.00
55113;BME280;41006;50.920;3.456;2023-06-19T01:24:05;100765.22;;;18.51;100.00
55113;BME280;41006;50.920;3.456;2023-06-19T01:24:41;100762.69;;;18.47;100.00
55113;BME280;41006;50.920;3.456;2023-06-19T01:25:14;100775.00;;;18.52;100.00
55113;BME280;41006;50.920;3.456;2023-06-19T01:25:46;100765.94;;;18.54;100.00
55113;BME280;41006;50.920;3.456;2023-06-19T01:26:17;100763.13;;;18.57;100.00
55113;BME280;41006;50.920;3.456;2023-06-19T01:26:50;100768.56;;;18.56;100.00
55113;BME280;41006;50.920;3.456;2023-06-19T01:27:24;100757.75;;;18.57;100.00
55113;BME280;41006;50.920;3.456;2023-06-19T01:28:02;100761.22;;;18.59;100.00
55113;BME280;41006;50.920;3.456;2023-06-19T01:28:41;100763.13;;;18.57;100.00
55113;BME280;41006;50.920;3.456;2023-06-19T01:29:16;100766.75;;;18.56;100.00
55113;BME280;41006;50.920;3.456;2023-06-19T01:29:48;100768.50;;;18.57;100.00
55113;BME280;41006;50.920;3.456;2023-06-19T01:30:22;100763.84;;;18.61;100.00
55113;BME280;41006;50.920;3.456;2023-06-19T01:30:55;100764.06;;;18.56;100.00
55113;BME280;41006;50.920;3.456;2023-06-19T01:31:35;100774.00;;;18.54;100.00
55113;BME280;41006;50.920;3.456;2023-06-19T01:32:13;100777.06;;;18.46;100.00
55113;BME280;41006;50.920;3.456;2023-06-19T01:32:55;100759.13;;;18.47;100.00
55113;BME280;41006;50.920;3.456;2023-06-19T01:33:31;100770.81;;;18.46;100.00
55113;BME280;41006;50.920;3.456;2023-06-19T01:34:04;100765.03;;;18.55;100.00
55113;BME280;41006;50.920;3.456;2023-06-19T01:34:37;100770.59;;;18.51;100.00
55113;BME280;41006;50.920;3.456;2023-06-19T01:35:11;100768.91;;;18.48;100.00
55113;BME280;41006;50.920;3.456;2023-06-19T01:35:46;100769.13;;;18.43;100.00
55113;BME280;41006;50.920;3.456;2023-06-19T01:36:19;100779.75;;;18.46;100.00
55113;BME280;41006;50.920;3.456;2023-06-19T01:36:50;100776.69;;;18.54;100.00
55113;BME280;41006;50.920;3.456;2023-06-19T01:37:24;100777.63;;;18.53;100.00
55113;BME280;41006;50.920;3.456;2023-06-19T01:37:57;100768.63;;;18.54;100.00
55113;BME280;41006;50.920;3.456;2023-06-19T01:38:30;100781.22;;;18.54;100.00
55113;BME280;41006;50.920;3.456;2023-06-19T01:39:01;100779.53;;;18.51;100.00
55113;BME280;41006;50.920;3.456;2023-06-19T01:39:33;100789.19;;;18.55;100.00
55113;BME280;41006;50.920;3.456;2023-06-19T01:40:10;100780.19;;;18.56;100.00
55113;BME280;41006;50.920;3.456;2023-06-19T01:40:41;100786.50;;;18.55;100.00
55113;BME280;41006;50.920;3.456;2023-06-19T01:41:19;100783.38;;;18.64;100.00
55113;BME280;41006;50.920;3.456;2023-06-19T01:41:52;100778.56;;;18.71;100.00
55113;BME280;41006;50.920;3.456;2023-06-19T01:42:26;100785.63;;;18.74;100.00
55113;BME280;41006;50.920;3.456;2023-06-19T01:43:01;100783.22;;;18.67;100.00
55113;BME280;41006;50.920;3.456;2023-06-19T01:43:32;100787.81;;;18.65;100.00
55113;BME280;41006;50.920;3.456;2023-06-19T01:44:03;100794.19;;;18.63;100.00
55113;BME280;41006;50.920;3.456;2023-06-19T01:44:33;100791.34;;;18.66;100.00
55113;BME280;41006;50.920;3.456;2023-06-19T01:45:05;100791.56;;;18.61;100.00
55113;BME280;41006;50.920;3.456;2023-06-19T01:45:38;100795.38;;;18.57;100.00
55113;BME280;41006;50.920;3.456;2023-06-19T01:46:11;100797.66;;;18.65;100.00
55113;BME280;41006;50.920;3.456;2023-06-19T01:46:42;100801.25;;;18.65;100.00
55113;BME280;41006;50.920;3.456;2023-06-19T01:47:12;100798.69;;;18.62;100.00
55113;BME280;41006;50.920;3.456;2023-06-19T01:47:45;100792.59;;;18.59;100.00
55113;BME280;41006;50.920;3.456;2023-06-19T01:48:16;100805.16;;;18.58;100.00
55113;BME280;41006;50.920;3.456;2023-06-19T01:48:46;100805.97;;;18.60;100.00
55113;BME280;41006;50.920;3.456;2023-06-19T01:49:17;100799.63;;;18.61;100.00
55113;BME280;41006;50.920;3.456;2023-06-19T01:49:50;100814.19;;;18.57;100.00
55113;BME280;41006;50.920;3.456;2023-06-19T01:50:24;100811.16;;;18.63;100.00
55113;BME280;41006;50.920;3.456;2023-06-19T01:50:54;100814.19;;;18.57;100.00
55113;BME280;41006;50.920;3.456;2023-06-19T01:51:29;100808.16;;;18.52;100.00
55113;BME280;41006;50.920;3.456;2023-06-19T01:52:02;100809.88;;;18.53;100.00
55113;BME280;41006;50.920;3.456;2023-06-19T01:52:38;100812.50;;;18.55;100.00
55113;BME280;41006;50.920;3.456;2023-06-19T01:53:08;100810.97;;;18.49;100.00
55113;BME280;41006;50.920;3.456;2023-06-19T01:53:43;100816.34;;;18.49;100.00
55113;BME280;41006;50.920;3.456;2023-06-19T01:54:19;100811.25;;;18.43;100.00
55113;BME280;41006;50.920;3.456;2023-06-19T01:54:51;100808.84;;;18.37;100.00
55113;BME280;41006;50.920;3.456;2023-06-19T01:55:25;100816.50;;;18.46;100.00
55113;BME280;41006;50.920;3.456;2023-06-19T01:55:57;100824.41;;;18.49;100.00
55113;BME280;41006;50.920;3.456;2023-06-19T01:56:28;100817.41;;;18.45;100.00
55113;BME280;41006;50.920;3.456;2023-06-19T01:56:59;100820.94;;;18.47;100.00
55113;BME280;41006;50.920;3.456;2023-06-19T01:57:29;100831.38;;;18.53;100.00
55113;BME280;41006;50.920;3.456;2023-06-19T01:58:00;100832.59;;;18.46;100.00
55113;BME280;41006;50.920;3.456;2023-06-19T01:58:32;100826.59;;;18.41;100.00
55113;BME280;41006;50.920;3.456;2023-06-19T01:59:08;100829.84;;;18.47;100.00
55113;BME280;41006;50.920;3.456;2023-06-19T01:59:38;100822.78;;;18.45;100.00
55113;BME280;41006;50.920;3.456;2023-06-19T02:00:12;100829.78;;;18.49;100.00
55113;BME280;41006;50.920;3.456;2023-06-19T02:00:43;100834.06;;;18.53;100.00
55113;BME280;41006;50.920;3.456;2023-06-19T02:01:16;100832.41;;;18.51;100.00
55113;BME280;41006;50.920;3.456;2023-06-19T02:01:46;100833.13;;;18.54;100.00
55113;BME280;41006;50.920;3.456;2023-06-19T02:02:24;100841.84;;;18.59;100.00
55113;BME280;41006;50.920;3.456;2023-06-19T02:02:57;100835.81;;;18.54;100.00
55113;BME280;41006;50.920;3.456;2023-06-19T02:03:27;100845.09;;;18.47;100.00
55113;BME280;41006;50.920;3.456;2023-06-19T02:03:57;100835.56;;;18.40;100.00
55113;BME280;41006;50.920;3.456;2023-06-19T02:04:32;100838.19;;;18.41;100.00
55113;BME280;41006;50.920;3.456;2023-06-19T02:05:03;100831.94;;;18.41;100.00
55113;BME280;41006;50.920;3.456;2023-06-19T02:05:38;100839.50;;;18.33;100.00
55113;BME280;41006;50.920;3.456;2023-06-19T02:06:09;100823.50;;;18.29;100.00
55113;BME280;41006;50.920;3.456;2023-06-19T02:06:42;100842.44;;;18.26;100.00
55113;BME280;41006;50.920;3.456;2023-06-19T02:07:12;100841.78;;;18.21;100.00
55113;BME280;41006;50.920;3.456;2023-06-19T02:07:47;100848.91;;;18.22;100.00
55113;BME280;41006;50.920;3.456;2023-06-19T02:08:20;100847.88;;;18.25;100.00
55113;BME280;41006;50.920;3.456;2023-06-19T02:08:55;100840.84;;;18.22;100.00
55113;BME280;41006;50.920;3.456;2023-06-19T02:09:25;100842.81;;;18.19;100.00
55113;BME280;41006;50.920;3.456;2023-06-19T02:10:00;100845.44;;;18.20;100.00
55113;BME280;41006;50.920;3.456;2023-06-19T02:10:31;100837.44;;;18.19;100.00
55113;BME280;41006;50.920;3.456;2023-06-19T02:11:03;100842.75;;;18.20;100.00
55113;BME280;41006;50.920;3.456;2023-06-19T02:11:34;100845.34;;;18.22;100.00
55113;BME280;41006;50.920;3.456;2023-06-19T02:12:10;100841.78;;;18.21;100.00
55113;BME280;41006;50.920;3.456;2023-06-19T02:12:40;100846.16;;;18.24;100.00
55113;BME280;41006;50.920;3.456;2023-06-19T02:13:10;100844.47;;;18.21;100.00
55113;BME280;41006;50.920;3.456;2023-06-19T02:13:47;100846.28;;;18.21;100.00
55113;BME280;41006;50.920;3.456;2023-06-19T02:14:18;100842.50;;;18.25;100.00
55113;BME280;41006;50.920;3.456;2023-06-19T02:14:56;100847.81;;;18.26;100.00
55113;BME280;41006;50.920;3.456;2023-06-19T02:15:33;100848.63;;;18.28;100.00
55113;BME280;41006;50.920;3.456;2023-06-19T02:16:06;100845.28;;;18.23;100.00
55113;BME280;41006;50.920;3.456;2023-06-19T02:16:37;100847.69;;;18.29;100.00
55113;BME280;41006;50.920;3.456;2023-06-19T02:17:10;100846.88;;;18.27;100.00
55113;BME280;41006;50.920;3.456;2023-06-19T02:17:41;100849.38;;;18.32;100.00
55113;BME280;41006;50.920;3.456;2023-06-19T02:18:12;100849.50;;;18.29;100.00
55113;BME280;41006;50.920;3.456;2023-06-19T02:18:45;100847.69;;;18.29;100.00
55113;BME280;41006;50.920;3.456;2023-06-19T02:19:15;100854.09;;;18.27;100.00
55113;BME280;41006;50.920;3.456;2023-06-19T02:19:46;100848.91;;;18.22;100.00
55113;BME280;41006;50.920;3.456;2023-06-19T02:20:18;100848.03;;;18.22;100.00
55113;BME280;41006;50.920;3.456;2023-06-19T02:20:50;100850.50;;;18.26;100.00
55113;BME280;41006;50.920;3.456;2023-06-19T02:21:26;100853.91;;;18.30;100.00
55113;BME280;41006;50.920;3.456;2023-06-19T02:22:01;100851.16;;;18.31;100.00
55113;BME280;41006;50.920;3.456;2023-06-19T02:22:32;100849.38;;;18.32;100.00
55113;BME280;41006;50.920;3.456;2023-06-19T02:23:04;100855.22;;;18.21;100.00
55113;BME280;41006;50.920;3.456;2023-06-19T02:23:42;100862.47;;;18.19;100.00
55113;BME280;41006;50.920;3.456;2023-06-19T02:24:18;100860.25;;;18.29;100.00
55113;BME280;41006;50.920;3.456;2023-06-19T02:24:48;100859.47;;;18.27;100.00
55113;BME280;41006;50.920;3.456;2023-06-19T02:25:21;100863.88;;;18.28;100.00
55113;BME280;41006;50.920;3.456;2023-06-19T02:25:54;100858.94;;;18.19;100.00
55113;BME280;41006;50.920;3.456;2023-06-19T02:26:24;100859.78;;;18.19;100.00
55113;BME280;41006;50.920;3.456;2023-06-19T02:26:57;100860.59;;;18.21;100.00
55113;BME280;41006;50.920;3.456;2023-06-19T02:27:28;100863.00;;;18.27;100.00
55113;BME280;41006;50.920;3.456;2023-06-19T02:27:59;100864.59;;;18.31;100.00
55113;BME280;41006;50.920;3.456;2023-06-19T02:28:30;100862.88;;;18.30;100.00
55113;BME280;41006;50.920;3.456;2023-06-19T02:29:03;100857.63;;;18.27;100.00
55113;BME280;41006;50.920;3.456;2023-06-19T02:29:33;100861.38;;;18.23;100.00
55113;BME280;41006;50.920;3.456;2023-06-19T02:30:12;100858.03;;;18.18;100.00
55113;BME280;41006;50.920;3.456;2023-06-19T02:30:42;100861.22;;;18.07;100.00
55113;BME280;41006;50.920;3.456;2023-06-19T02:31:13;100854.03;;;18.08;100.00
55113;BME280;41006;50.920;3.456;2023-06-19T02:31:46;100853.16;;;18.07;100.00
55113;BME280;41006;50.920;3.456;2023-06-19T02:32:18;100863.97;;;18.06;100.00
55113;BME280;41006;50.920;3.456;2023-06-19T02:32:51;100857.56;;;18.08;100.00
55113;BME280;41006;50.920;3.456;2023-06-19T02:33:28;100854.56;;;18.16;100.00
55113;BME280;41006;50.920;3.456;2023-06-19T02:34:02;100859.31;;;18.09;100.00
55113;BME280;41006;50.920;3.456;2023-06-19T02:34:35;100859.53;;;18.05;100.00
55113;BME280;41006;50.920;3.456;2023-06-19T02:35:09;100862.34;;;18.02;100.00
55113;BME280;41006;50.920;3.456;2023-06-19T02:35:45;100855.25;;;18.01;100.00
55113;BME280;41006;50.920;3.456;2023-06-19T02:36:21;100858.84;;;18.00;100.00
55113;BME280;41006;50.920;3.456;2023-06-19T02:36:51;100866.13;;;17.98;100.00
55113;BME280;41006;50.920;3.456;2023-06-19T02:37:22;100865.31;;;17.96;100.00
55113;BME280;41006;50.920;3.456;2023-06-19T02:37:54;100862.91;;;17.89;100.00
55113;BME280;41006;50.920;3.456;2023-06-19T02:38:27;100859.28;;;17.90;100.00
55113;BME280;41006;50.920;3.456;2023-06-19T02:39:00;100864.50;;;17.93;100.00
55113;BME280;41006;50.920;3.456;2023-06-19T02:39:33;100861.13;;;17.88;100.00
55113;BME280;41006;50.920;3.456;2023-06-19T02:40:04;100861.06;;;17.90;100.00
55113;BME280;41006;50.920;3.456;2023-06-19T02:40:37;100861.97;;;17.90;100.00
55113;BME280;41006;50.920;3.456;2023-06-19T02:41:08;100862.91;;;17.89;100.00
55113;BME280;41006;50.920;3.456;2023-06-19T02:41:38;100864.72;;;17.89;100.00
55113;BME280;41006;50.920;3.456;2023-06-19T02:42:13;100864.00;;;17.84;100.00
55113;BME280;41006;50.920;3.456;2023-06-19T02:42:45;100860.50;;;17.82;100.00
55113;BME280;41006;50.920;3.456;2023-06-19T02:43:18;100869.56;;;17.79;100.00
55113;BME280;41006;50.920;3.456;2023-06-19T02:43:53;100866.03;;;17.79;100.00
55113;BME280;41006;50.920;3.456;2023-06-19T02:44:24;100868.72;;;17.79;100.00
55113;BME280;41006;50.920;3.456;2023-06-19T02:44:54;100866.94;;;17.78;100.00
55113;BME280;41006;50.920;3.456;2023-06-19T02:45:24;100870.91;;;17.69;100.00
55113;BME280;41006;50.920;3.456;2023-06-19T02:46:00;100865.53;;;17.69;100.00
55113;BME280;41006;50.920;3.456;2023-06-19T02:46:31;100863.72;;;17.69;100.00
55113;BME280;41006;50.920;3.456;2023-06-19T02:47:03;100864.41;;;17.74;100.00
55113;BME280;41006;50.920;3.456;2023-06-19T02:47:34;100870.25;;;17.84;100.00
55113;BME280;41006;50.920;3.456;2023-06-19T02:48:06;100871.75;;;17.91;100.00
55113;BME280;41006;50.920;3.456;2023-06-19T02:48:39;100868.00;;;17.96;100.00
55113;BME280;41006;50.920;3.456;2023-06-19T02:49:12;100870.09;;;17.89;100.00
55113;BME280;41006;50.920;3.456;2023-06-19T02:49:42;100870.69;;;17.96;100.00
55113;BME280;41006;50.920;3.456;2023-06-19T02:50:15;100877.25;;;17.88;100.00
55113;BME280;41006;50.920;3.456;2023-06-19T02:50:50;100870.50;;;17.78;100.00
55113;BME280;41006;50.920;3.456;2023-06-19T02:51:23;100867.56;;;17.64;100.00
55113;BME280;41006;50.920;3.456;2023-06-19T02:51:58;100866.03;;;17.56;100.00
55113;BME280;41006;50.920;3.456;2023-06-19T02:52:28;100872.91;;;17.64;100.00